VIDP/DEL METAR and TAF weather

Enter ICAO airport designator
Station Type Date Time Source
VIDP METAR 2019/06/17 06:30 UTC NOAA

VIDP 170630Z 28008G18KT 3500 HZ SCT035 FEW040CB BKN100 30/19 Q1002 NOSIG


Station Type Date Time Source
VIDP Decoded METAR 2019/06/17 06:30 UTC NOAA

New Delhi / Palam, India (VIDP) 28-34N 077-07E 233M
Jun 17, 2019 - 02:30 AM EDT / 2019.06.17 0630 UTC
Wind: from the W (280 degrees) at 9 MPH (8 KT) gusting to 21 MPH (18 KT):0
Visibility: 2 mile(s):0
Sky conditions: mostly cloudy
Weather: haze; Cumulonimbus clouds observed
Temperature: 86 F (30 C)
Dew Point: 66 F (19 C)
Relative Humidity: 51%
Pressure (altimeter): 29.59 in. Hg (1002 hPa)
ob: VIDP 170630Z 28008G18KT 3500 HZ SCT035 FEW040CB BKN100 30/19 Q1002 NOSIG
cycle: 6

Station Type Date Time Source
VIDP TAF 2019/06/17 06:51 UTC NOAA

TAF VIDP 170500Z 1706/1812 27010G20KT 4000 HZ -RA SCT035 FEW040CB BKN100
BECMG 1712/1718 25020G30KT 1000 DS -TSRA FEW035CB
BECMG 1800/1802 25008KT 3000 HZ SCT040 SCT100
BECMG 1803/1808 29020G30KT 1000 DS -TSRA SCT030 FEW035CB BKN080

Example: see airport list